Data for 11/22/2017

Time Sea-Level Adjusted Pressure Absolute Pressure Temperature Relative Humidity Dew Point   
(mb) (inHg) (mb) (inHg) (C) (F) (%) (C) (F)
00:05 1022 30.18 852 25.16 6.3 43.4 66 0.5 33
00:10 1023 30.21 852 25.16 6.8 44.2 66 0.8 33.5
00:15 1023 30.21 852 25.16 6.6 43.9 67 0.9 33.7
00:20 1023 30.21 852 25.16 6.8 44.2 66 0.8 33.5
00:25 1023 30.21 852 25.16 6.3 43.4 68 0.9 33.7
00:30 1023 30.21 852 25.16 6 42.8 69 0.8 33.5
00:35 1023 30.21 852 25.16 6 42.7 70 0.9 33.6
00:40 1023 30.21 852 25.16 6.4 43.5 66 0.6 33.1
00:45 1023 30.21 852 25.16 7.7 45.8 63 1.1 34
00:50 1023 30.21 852 25.16 8 46.3 63 1.3 34.3
00:55 1022 30.18 852 25.16 7.7 45.8 63 1.1 34
01:00 1022 30.18 852 25.16 7.2 45 65 1.2 34.2
01:05 1022 30.18 851 25.13 7.2 45 63 0.7 33.2
01:10 1022 30.18 851 25.13 7.5 45.6 63 1 33.8
01:15 1022 30.18 851 25.13 7.4 45.3 64 1 33.8
01:20 1022 30.18 851 25.13 7.3 45.1 63 0.8 33.5
01:25 1022 30.18 851 25.13 8.2 46.7 61 1 33.9
01:30 1022 30.18 851 25.13 8.1 46.6 60 0.9 33.5
01:35 1022 30.18 851 25.13 8.8 47.8 57 0.6 33.2
01:40 1022 30.18 851 25.13 9.6 49.4 54 0.7 33.3
01:45 1022 30.18 851 25.13 9.7 49.5 55 1.3 34.3
01:50 1022 30.18 851 25.13 9.7 49.4 55 1.1 34
01:55 1022 30.18 851 25.13 9.7 49.5 54 1 33.7
02:00 1022 30.18 851 25.13 9.6 49.3 55 1 33.7
02:05 1022 30.18 851 25.13 9.4 48.9 56 1.2 34.2
02:10 1022 30.18 851 25.13 9.1 48.4 56 0.8 33.5
02:15 1022 30.18 851 25.13 8.9 47.9 58 1 33.8
02:20 1022 30.18 851 25.13 8.6 47.4 59 1.1 34
02:25 1022 30.18 851 25.13 8.4 47.1 59 0.8 33.5
02:30 1022 30.18 851 25.13 8.5 47.3 58 0.7 33.2
02:35 1022 30.18 851 25.13 8.5 47.3 58 0.8 33.5
02:40 1022 30.18 851 25.13 8.4 47.1 58 0.8 33.4
02:45 1022 30.18 851 25.13 8.3 46.9 60 1.1 34
02:50 1022 30.18 851 25.13 7.9 46.2 60 0.7 33.3
02:55 1022 30.18 851 25.13 7.7 45.9 63 1.1 33.9
03:00 1022 30.18 851 25.13 6.8 44.3 65 0.8 33.4
03:05 1022 30.18 851 25.13 7.2 45 63 0.6 33.1
03:10 1022 30.18 851 25.13 7.5 45.4 62 0.7 33.2
03:15 1022 30.18 851 25.13 7.9 46.2 59 0.3 32.6
03:20 1022 30.18 851 25.13 7.9 46.2 61 0.9 33.6
03:25 1022 30.18 851 25.13 7.7 45.9 62 0.9 33.6
03:30 1022 30.18 851 25.13 7.5 45.5 63 0.9 33.6
03:35 1022 30.18 852 25.16 7.8 46 60 0.5 32.9
03:40 1022 30.18 852 25.16 7.8 46.1 62 1 33.8
03:45 1022 30.18 852 25.16 7.5 45.5 62 0.7 33.2
03:50 1022 30.18 852 25.16 7.2 44.9 64 0.9 33.7
03:55 1022 30.18 852 25.16 7.2 44.9 63 0.6 33.2
04:00 1023 30.21 852 25.16 7.6 45.7 61 0.6 33
04:05 1022 30.18 852 25.16 7.9 46.3 59 0.5 33
04:10 1022 30.18 852 25.16 8.7 47.7 58 1 33.7
04:15 1023 30.21 852 25.16 8.9 47.9 57 0.8 33.5
04:20 1022 30.18 852 25.16 9.5 49 55 0.9 33.7
04:25 1023 30.21 852 25.16 9.7 49.5 55 1.1 33.9
04:30 1022 30.18 851 25.13 9.8 49.6 55 1.1 34
04:35 1022 30.18 851 25.13 9.5 49.1 55 1 33.8
04:40 1022 30.18 852 25.16 9.5 49.1 55 0.9 33.5
04:45 1022 30.18 852 25.16 9.5 49.2 54 0.8 33.5
04:50 1022 30.18 851 25.13 10.1 50.1 52 0.6 33.1
04:55 1022 30.18 852 25.16 10.4 50.7 52 1 33.8
05:00 1022 30.18 851 25.13 10.1 50.2 52 0.8 33.5
05:05 1022 30.18 851 25.13 10.2 50.3 53 1 33.7
05:10 1022 30.18 851 25.13 10.3 50.5 52 1 33.8
05:15 1022 30.18 851 25.13 10.2 50.4 52 1 33.7
05:20 1022 30.18 851 25.13 10.3 50.6 52 1 33.8
05:25 1022 30.18 851 25.13 10.3 50.5 52 0.9 33.7
05:30 1022 30.18 851 25.13 10.2 50.4 53 1 33.8
05:35 1022 30.18 852 25.16 10.3 50.5 52 0.9 33.7
05:40 1022 30.18 852 25.16 10.1 50.2 53 1 33.7
05:45 1022 30.18 852 25.16 10.2 50.4 53 1 33.8
05:50 1022 30.18 852 25.16 10.1 50.1 53 1 33.8
05:55 1022 30.18 852 25.16 9.9 49.9 53 0.9 33.6
06:00 1022 30.18 852 25.16 10 50 53 1 33.7
06:05 1022 30.18 852 25.16 10 50 54 1.1 34
06:10 1022 30.18 852 25.16 10.1 50.2 52 0.7 33.3
06:15 1022 30.18 852 25.16 10.4 50.7 53 1.3 34.3
06:20 1022 30.18 852 25.16 10.2 50.4 52 1 33.8
06:25 1023 30.21 852 25.16 10.4 50.8 52 1.1 34
06:30 1022 30.18 852 25.16 10.3 50.5 53 1.1 34
06:35 1022 30.18 852 25.16 10.1 50.2 53 0.9 33.6
06:40 1022 30.18 852 25.16 10.4 50.8 52 1.1 33.9
06:45 1022 30.18 852 25.16 10.9 51.6 50 0.8 33.4
06:50 1023 30.21 852 25.16 11.3 52.4 50 1.3 34.3
06:55 1023 30.21 852 25.16 11.2 52.1 50 1.3 34.4
07:00 1023 30.21 852 25.16 11.2 52.1 50 1.1 34
07:05 1023 30.21 852 25.16 11.4 52.4 50 1.3 34.3
07:10 1023 30.21 852 25.16 11.2 52.1 51 1.5 34.7
07:15 1023 30.21 852 25.16 11 51.7 51 1.4 34.5
07:20 1023 30.21 852 25.16 10.9 51.6 52 1.4 34.6
07:25 1023 30.21 852 25.16 10.6 51 53 1.5 34.6
07:30 1023 30.21 852 25.16 9.9 49.8 55 1.4 34.5
07:35 1023 30.21 852 25.16 9.7 49.4 56 1.4 34.5
07:40 1023 30.21 852 25.16 9.2 48.6 58 1.4 34.6
07:45 1023 30.21 852 25.16 9.1 48.3 58 1.3 34.3
07:50 1023 30.21 852 25.16 9.1 48.3 59 1.4 34.5
07:55 1023 30.21 852 25.16 9.2 48.5 57 1.2 34.1
08:00 1023 30.21 852 25.16 9.8 49.6 56 1.4 34.5
08:05 1023 30.21 852 25.16 9.6 49.3 57 1.7 35
08:10 1023 30.21 853 25.19 9.4 48.8 58 1.6 34.8
08:15 1023 30.21 853 25.19 9.5 49 57 1.5 34.7
08:20 1023 30.21 853 25.19 9.6 49.4 57 1.6 34.8
08:25 1023 30.21 853 25.19 9.7 49.5 57 1.5 34.8
08:30 1023 30.21 853 25.19 9.9 49.7 56 1.6 34.9
08:35 1023 30.21 853 25.19 10.2 50.3 55 1.6 34.9
08:40 1023 30.21 853 25.19 10.3 50.6 55 1.7 35
08:45 1024 30.24 853 25.19 10.4 50.7 55 1.7 35
08:50 1024 30.24 853 25.19 10.3 50.5 55 1.8 35.2
08:55 1023 30.21 853 25.19 10.1 50.2 55 1.6 35
09:00 1023 30.21 853 25.19 10 49.9 56 1.5 34.8
09:05 1024 30.24 853 25.19 9.9 49.9 56 1.6 34.9
09:10 1024 30.24 853 25.19 10 50 56 1.6 35
09:15 1024 30.24 853 25.19 10.1 50.1 56 1.6 34.9
09:20 1024 30.24 853 25.19 9.8 49.7 56 1.6 34.8
09:25 1024 30.24 853 25.19 10 49.9 55 1.4 34.5
09:30 1024 30.24 853 25.19 10.3 50.6 54 1.5 34.7
09:35 1024 30.24 853 25.19 10.6 51.1 54 1.7 35
09:40 1024 30.24 853 25.19 10.2 50.4 56 1.8 35.3
09:45 1024 30.24 853 25.19 9.8 49.6 57 1.6 35
09:50 1024 30.24 853 25.19 9.6 49.3 57 1.6 34.9
09:55 1024 30.24 853 25.19 9.7 49.4 57 1.6 34.9
10:00 1024 30.24 853 25.19 9.9 49.8 56 1.6 34.9
10:05 1024 30.24 853 25.19 10.2 50.3 56 1.7 35.1
10:10 1024 30.24 853 25.19 10.5 50.8 55 1.9 35.4
10:15 1024 30.24 853 25.19 10.6 51.1 55 2 35.5
10:20 1024 30.24 853 25.19 10.9 51.6 54 2.1 35.7
10:25 1024 30.24 853 25.19 11.1 52 53 1.9 35.4
10:30 1024 30.24 853 25.19 11.5 52.6 51 1.8 35.3
10:35 1024 30.24 854 25.22 11.9 53.3 50 1.9 35.5
10:40 1025 30.27 854 25.22 11.7 53 52 2.3 36.2
10:45 1025 30.27 854 25.22 11.1 52 54 2.1 35.8
10:50 1025 30.27 854 25.22 11.3 52.3 52 1.9 35.5
10:55 1025 30.27 854 25.22 11.5 52.7 52 2 35.6
11:00 1025 30.27 854 25.22 11.5 52.6 52 1.9 35.4
11:05 1025 30.27 854 25.22 11.7 53 50 1.7 35
11:10 1025 30.27 854 25.22 12 53.6 49 1.7 35
11:15 1025 30.27 854 25.22 12.6 54.6 48 2 35.6
11:20 1025 30.27 854 25.22 12.8 55 47 2 35.6
11:25 1025 30.27 854 25.22 13 55.3 48 2.2 35.9
11:30 1025 30.27 854 25.22 13 55.4 47 1.9 35.4
11:35 1025 30.27 854 25.22 13.2 55.8 46 1.9 35.3
11:40 1024 30.24 854 25.22 13.5 56.3 45 1.8 35.2
11:45 1024 30.24 853 25.19 13.6 56.4 45 1.8 35.2
11:50 1024 30.24 853 25.19 14 57.2 43 1.6 34.9
11:55 1024 30.24 853 25.19 14.2 57.5 43 1.7 35.1
12:00 1024 30.24 853 25.19 14.2 57.6 43 1.9 35.5
12:05 1024 30.24 853 25.19 14.1 57.3 43 1.8 35.3
12:10 1024 30.24 853 25.19 14.2 57.5 42 1.7 35
12:15 1024 30.24 853 25.19 14.4 57.9 42 1.7 35.1
12:20 1024 30.24 853 25.19 14.8 58.6 41 1.7 35.1
12:25 1024 30.24 853 25.19 15 59 41 1.8 35.3
12:30 1024 30.24 853 25.19 15.1 59.1 41 2.2 35.9
12:35 1024 30.24 853 25.19 15.2 59.3 41 2.3 36.1
12:40 1024 30.24 853 25.19 14.7 58.5 43 2.5 36.5
12:45 1024 30.24 853 25.19 14.3 57.7 44 2.4 36.4
12:50 1024 30.24 853 25.19 14.3 57.7 44 2.2 35.9
12:55 1024 30.24 853 25.19 14.4 57.9 43 2.2 35.9
13:00 1024 30.24 853 25.19 14.3 57.8 43 2.1 35.8
13:05 1024 30.24 853 25.19 14.2 57.6 44 2.1 35.7
13:10 1024 30.24 853 25.19 13.9 57 45 2.3 36.1
13:15 1024 30.24 853 25.19 13.6 56.6 45 2.1 35.8
13:20 1024 30.24 853 25.19 13.7 56.6 45 2 35.7
13:25 1024 30.24 853 25.19 13.9 57 45 2.1 35.8
13:30 1024 30.24 853 25.19 14.1 57.4 44 2.2 35.9
13:35 1024 30.24 853 25.19 14.1 57.5 44 2.3 36.1
13:40 1024 30.24 853 25.19 13.9 57.1 45 2.4 36.3
13:45 1024 30.24 853 25.19 13.5 56.4 46 2.3 36.2
13:50 1024 30.24 853 25.19 13.3 56 47 2.2 35.9
13:55 1024 30.24 853 25.19 13.5 56.2 46 2.3 36.1
14:00 1024 30.24 853 25.19 13.6 56.5 46 2.4 36.3
14:05 1024 30.24 853 25.19 13.7 56.6 46 2.2 36
14:10 1024 30.24 853 25.19 13.5 56.3 47 2.4 36.3
14:15 1024 30.24 853 25.19 13.3 56 47 2.3 36.1
14:20 1024 30.24 853 25.19 13.2 55.7 48 2.5 36.5
14:25 1024 30.24 853 25.19 13.2 55.7 48 2.4 36.3
14:30 1023 30.21 853 25.19 13.2 55.8 48 2.4 36.3
14:35 1024 30.24 853 25.19 13.3 55.9 48 2.5 36.4
14:40 1024 30.24 853 25.19 13.1 55.6 48 2.4 36.3
14:45 1024 30.24 853 25.19 13.1 55.5 48 2.5 36.4
14:50 1024 30.24 853 25.19 13.2 55.7 48 2.3 36.2
14:55 1024 30.24 853 25.19 12.9 55.3 48 2.3 36.2
15:00 1024 30.24 853 25.19 12.8 55 49 2.3 36.2
15:05 1024 30.24 853 25.19 12.8 55.1 49 2.3 36.1
15:10 1024 30.24 853 25.19 12.9 55.2 48 2.3 36.2
15:15 1024 30.24 853 25.19 13 55.4 48 2.4 36.4
15:20 1024 30.24 853 25.19 13.1 55.6 48 2.4 36.4
15:25 1024 30.24 853 25.19 13.1 55.6 48 2.5 36.5
15:30 1024 30.24 853 25.19 13 55.4 49 2.7 36.8
15:35 1024 30.24 853 25.19 12.8 55.1 49 2.6 36.6
15:40 1024 30.24 853 25.19 12.7 54.9 50 2.5 36.6
15:45 1024 30.24 853 25.19 12.7 54.8 50 2.5 36.5
15:50 1024 30.24 853 25.19 12.6 54.6 50 2.4 36.3
15:55 1024 30.24 853 25.19 12.5 54.5 51 2.6 36.7
16:00 1024 30.24 853 25.19 12.3 54.2 51 2.5 36.5
16:05 1024 30.24 853 25.19 12.1 53.9 51 2.5 36.5
16:10 1024 30.24 853 25.19 12 53.5 52 2.3 36.2
16:15 1024 30.24 853 25.19 12 53.6 51 2.2 36
16:20 1024 30.24 853 25.19 12.1 53.8 51 2.3 36.2
16:25 1024 30.24 853 25.19 12 53.5 52 2.4 36.4
16:30 1024 30.24 853 25.19 11.8 53.2 52 2.3 36.2
16:35 1024 30.24 853 25.19 11.7 53.1 52 2.3 36.2
16:40 1024 30.24 853 25.19 11.7 53 53 2.4 36.4
16:45 1024 30.24 853 25.19 11.6 52.8 52 2.2 36
16:50 1024 30.24 853 25.19 11.5 52.8 53 2.4 36.3
16:55 1024 30.24 853 25.19 11.6 52.8 53 2.4 36.3
17:00 1024 30.24 853 25.19 11.6 52.9 53 2.3 36.1
17:05 1024 30.24 853 25.19 11.7 53 53 2.5 36.6
17:10 1024 30.24 853 25.19 11.4 52.6 54 2.5 36.6
17:15 1024 30.24 853 25.19 11.4 52.6 53 2.4 36.3
17:20 1024 30.24 853 25.19 11.7 53.1 53 2.5 36.5
17:25 1024 30.24 853 25.19 11.6 52.9 53 2.5 36.5
17:30 1024 30.24 853 25.19 11.3 52.3 54 2.4 36.4
17:35 1024 30.24 853 25.19 11.1 52 54 2.3 36.2
17:40 1024 30.24 853 25.19 11.2 52.1 54 2.2 36
17:45 1024 30.24 853 25.19 11.1 51.9 54 2.2 36
17:50 1024 30.24 853 25.19 11.1 52 54 2.1 35.8
17:55 1024 30.24 853 25.19 11.4 52.4 53 2.2 35.9
18:00 1023 30.21 853 25.19 11.4 52.6 53 2.2 36
18:05 1023 30.21 853 25.19 11.4 52.5 53 2.2 35.9
18:10 1024 30.24 853 25.19 11.4 52.5 53 2.3 36.1
18:15 1024 30.24 853 25.19 11.1 52 54 2.3 36.1
18:20 1024 30.24 853 25.19 11 51.8 54 2.1 35.8
18:25 1024 30.24 853 25.19 11 51.7 54 2 35.7